createdAt,value
2017-12-02T00:02:28.821Z,1015.6
2017-12-02T00:12:44.538Z,1015.7
2017-12-02T00:22:59.175Z,1015.7
2017-12-02T00:33:13.272Z,1015.9
2017-12-02T00:43:27.744Z,1016
2017-12-02T00:53:43.182Z,1016.2
2017-12-02T01:03:57.703Z,1016.2
2017-12-02T01:14:12.360Z,1016.3
2017-12-02T01:24:26.516Z,1016.4
2017-12-02T01:34:40.469Z,1016.6
2017-12-02T01:44:55.847Z,1016.7
2017-12-02T01:55:10.864Z,1016.8
2017-12-02T02:05:25.699Z,1016.9
2017-12-02T02:15:40.957Z,1017
2017-12-02T02:25:56.169Z,1017
2017-12-02T02:36:09.930Z,1017
2017-12-02T02:46:23.847Z,1017.1
2017-12-02T02:56:37.680Z,1017.2
2017-12-02T03:06:51.759Z,1017.2
2017-12-02T03:17:06.378Z,1017.3
2017-12-02T03:27:20.927Z,1017.4
2017-12-02T03:37:35.106Z,1017.4
2017-12-02T03:47:49.631Z,1017.4
2017-12-02T03:58:04.518Z,1017.5
2017-12-02T04:08:19.142Z,1017.7
2017-12-02T04:18:33.593Z,1017.7
2017-12-02T04:28:48.340Z,1017.7
2017-12-02T04:39:02.505Z,1017.7
2017-12-02T04:49:18.055Z,1017.7
2017-12-02T04:59:31.763Z,1017.6
2017-12-02T05:09:46.953Z,1017.6
2017-12-02T05:20:00.701Z,1017.7
2017-12-02T05:30:15.358Z,1017.8
2017-12-02T05:40:29.343Z,1017.9
2017-12-02T05:50:43.262Z,1018
2017-12-02T06:00:57.640Z,1018.2
2017-12-02T06:11:11.275Z,1018.4
2017-12-02T06:21:26.354Z,1018.5
2017-12-02T06:31:40.947Z,1018.6
2017-12-02T06:41:56.516Z,1018.7
2017-12-02T06:52:11.287Z,1018.9
2017-12-02T07:02:26.729Z,1018.8
2017-12-02T07:12:42.017Z,1018.8
2017-12-02T07:22:56.982Z,1018.9
2017-12-02T07:33:12.172Z,1019
2017-12-02T07:43:26.519Z,1018.9
2017-12-02T07:53:40.542Z,1018.9
2017-12-02T08:03:55.321Z,1019
2017-12-02T08:14:10.666Z,1019
2017-12-02T08:24:25.577Z,1019
2017-12-02T08:34:39.544Z,1019.2
2017-12-02T08:44:54.677Z,1019.3
2017-12-02T08:55:09.078Z,1019.5
2017-12-02T09:05:23.788Z,1019.6
2017-12-02T09:15:37.486Z,1019.7
2017-12-02T09:25:52.265Z,1019.8
2017-12-02T09:36:07.253Z,1020
2017-12-02T09:46:20.947Z,1020.1
2017-12-02T09:56:35.925Z,1020.2
2017-12-02T10:06:49.581Z,1020.2
2017-12-02T10:17:04.346Z,1020.1
2017-12-02T10:27:18.473Z,1020.1
2017-12-02T10:37:34.101Z,1020.1
2017-12-02T10:47:48.023Z,1020
2017-12-02T10:58:03.527Z,1020
2017-12-02T11:08:18.462Z,1019.8
2017-12-02T11:18:33.599Z,1019.8
2017-12-02T11:28:49.134Z,1019.8
2017-12-02T11:39:04.723Z,1019.7
2017-12-02T11:49:19.751Z,1019.7
2017-12-02T11:59:35.389Z,1019.7
2017-12-02T12:09:50.813Z,1019.5
2017-12-02T12:20:04.887Z,1019.3
2017-12-02T12:30:20.231Z,1019.4
2017-12-02T12:40:35.265Z,1019.4
2017-12-02T12:50:49.372Z,1019.4
2017-12-02T13:01:03.606Z,1019.6
2017-12-02T13:11:17.802Z,1019.5
2017-12-02T13:21:32.286Z,1019.4
2017-12-02T13:31:47.176Z,1019.4
2017-12-02T13:42:02.191Z,1019.3
2017-12-02T13:52:16.764Z,1019.4
2017-12-02T14:02:32.071Z,1019.5
2017-12-02T14:12:47.297Z,1019.4
2017-12-02T14:23:01.001Z,1019.4
2017-12-02T14:33:15.748Z,1019.5
2017-12-02T14:43:29.416Z,1019.5
2017-12-02T14:53:43.072Z,1019.6
2017-12-02T15:03:58.115Z,1019.6
2017-12-02T15:14:12.519Z,1019.5
2017-12-02T15:24:26.829Z,1019.6
2017-12-02T15:34:42.279Z,1019.5
2017-12-02T15:44:56.225Z,1019.6
2017-12-02T15:55:10.709Z,1019.7
2017-12-02T16:05:24.444Z,1019.6
2017-12-02T16:15:39.104Z,1019.6
2017-12-02T16:25:53.784Z,1019.6
2017-12-02T16:36:08.648Z,1019.7
2017-12-02T16:46:23.769Z,1019.6
2017-12-02T16:56:38.548Z,1019.6
2017-12-02T17:06:53.261Z,1019.6
2017-12-02T17:17:08.072Z,1019.5
2017-12-02T17:27:21.817Z,1019.5
2017-12-02T17:37:35.801Z,1019.5
2017-12-02T17:47:50.185Z,1019.5
2017-12-02T17:58:04.654Z,1019.4
2017-12-02T18:08:18.647Z,1019.6
2017-12-02T18:18:34.172Z,1019.5
2017-12-02T18:28:49.340Z,1019.5
2017-12-02T18:39:03.771Z,1019.5
2017-12-02T18:49:17.610Z,1019.5
2017-12-02T18:59:32.839Z,1019.6
2017-12-02T19:09:46.730Z,1019.7
2017-12-02T19:20:01.640Z,1019.6
2017-12-02T19:30:16.574Z,1019.5
2017-12-02T19:40:30.812Z,1019.4
2017-12-02T19:50:44.907Z,1019.4
2017-12-02T20:00:59.439Z,1019.4
2017-12-02T20:11:14.107Z,1019.4
2017-12-02T20:21:28.133Z,1019.2
2017-12-02T20:31:42.010Z,1019.1
2017-12-02T20:41:57.585Z,1019.2
2017-12-02T20:52:11.777Z,1019.2
